createdAt,value
2022-10-04T00:00:26.820Z,12.67
2022-10-04T00:03:12.937Z,12.60
2022-10-04T00:05:41.256Z,13.01
2022-10-04T00:08:24.434Z,12.85
2022-10-04T00:11:02.950Z,13.24
2022-10-04T00:13:30.126Z,13.41
2022-10-04T00:15:56.716Z,13.43
2022-10-04T00:18:28.284Z,13.73
2022-10-04T00:20:54.706Z,13.80
2022-10-04T00:23:24.242Z,13.84
2022-10-04T00:25:55.487Z,13.31
2022-10-04T00:28:22.071Z,13.71
2022-10-04T00:31:14.873Z,13.80
2022-10-04T00:33:48.584Z,13.90
2022-10-04T00:36:32.254Z,13.94
2022-10-04T00:39:07.719Z,13.83
2022-10-04T00:41:47.409Z,13.59
2022-10-04T00:44:23.086Z,13.42
2022-10-04T00:46:50.135Z,13.21
2022-10-04T00:49:20.408Z,13.27
2022-10-04T00:51:51.671Z,13.08
2022-10-04T00:54:32.093Z,13.16
2022-10-04T00:57:11.584Z,12.65
2022-10-04T00:59:41.283Z,13.05
2022-10-04T01:02:15.214Z,12.96
2022-10-04T01:04:46.251Z,12.83
2022-10-04T01:07:15.099Z,13.22
2022-10-04T01:09:48.685Z,13.33
2022-10-04T01:12:49.933Z,13.42
2022-10-04T01:15:22.841Z,13.35
2022-10-04T01:18:11.688Z,13.15
2022-10-04T01:21:00.186Z,13.53
2022-10-04T01:23:59.106Z,13.80
2022-10-04T01:26:32.378Z,13.43
2022-10-04T01:29:00.518Z,13.47
2022-10-04T01:31:28.424Z,13.47
2022-10-04T01:33:55.988Z,13.64
2022-10-04T01:36:22.920Z,13.45
2022-10-04T01:38:50.845Z,13.43
2022-10-04T01:41:29.228Z,13.10
2022-10-04T01:43:59.879Z,13.27
2022-10-04T01:46:31.426Z,12.27
2022-10-04T01:49:01.254Z,12.85
2022-10-04T01:51:31.097Z,12.70
2022-10-04T01:54:12.868Z,12.28
2022-10-04T01:57:07.537Z,12.93
2022-10-04T01:59:41.631Z,12.79
2022-10-04T02:02:21.361Z,12.65
2022-10-04T02:04:53.323Z,12.96
2022-10-04T02:07:19.982Z,13.10
2022-10-04T02:09:48.222Z,13.44
2022-10-04T02:12:16.545Z,13.91
2022-10-04T02:14:52.592Z,13.35
2022-10-04T02:17:25.953Z,13.76
2022-10-04T02:19:52.591Z,13.72
2022-10-04T02:22:19.545Z,13.97
2022-10-04T02:24:47.992Z,14.18
2022-10-04T02:27:15.067Z,14.11
2022-10-04T02:29:41.806Z,14.16
2022-10-04T02:32:27.529Z,13.98
2022-10-04T02:34:55.216Z,14.08
2022-10-04T02:37:26.870Z,14.15
2022-10-04T02:39:58.363Z,14.41
2022-10-04T02:42:25.447Z,14.49
2022-10-04T02:45:00.217Z,14.19
2022-10-04T02:47:30.881Z,14.41
2022-10-04T02:50:06.164Z,14.49
2022-10-04T02:52:42.167Z,14.55
2022-10-04T02:55:21.130Z,14.44
2022-10-04T02:57:49.864Z,14.21
2022-10-04T03:00:16.322Z,14.25
2022-10-04T03:03:21.098Z,14.16
2022-10-04T03:05:54.591Z,14.31
2022-10-04T03:08:21.123Z,13.89
2022-10-04T03:10:47.918Z,13.54
2022-10-04T03:13:16.001Z,13.84
2022-10-04T03:15:43.268Z,14.23
2022-10-04T03:18:10.075Z,14.30
2022-10-04T03:20:40.010Z,14.15
2022-10-04T03:23:06.875Z,14.14
2022-10-04T03:25:52.289Z,14.24
2022-10-04T03:28:19.292Z,14.48
2022-10-04T03:30:47.022Z,14.18
2022-10-04T03:33:17.898Z,14.18
2022-10-04T03:35:46.192Z,14.26
2022-10-04T03:38:13.193Z,14.21
2022-10-04T03:40:42.622Z,14.09
2022-10-04T03:43:12.426Z,13.35
2022-10-04T03:45:39.669Z,13.69
2022-10-04T03:48:08.320Z,13.63
2022-10-04T03:50:38.942Z,13.80
2022-10-04T03:53:15.151Z,13.56
2022-10-04T03:55:44.150Z,13.56
2022-10-04T03:58:12.740Z,13.85
2022-10-04T04:01:00.521Z,14.27
2022-10-04T04:03:28.684Z,13.69
2022-10-04T04:05:59.850Z,14.01
2022-10-04T04:08:30.548Z,14.28
2022-10-04T04:10:58.687Z,14.26
2022-10-04T04:13:29.660Z,14.11
2022-10-04T04:15:57.421Z,13.99
2022-10-04T04:18:26.829Z,13.84
2022-10-04T04:20:58.926Z,13.98
2022-10-04T04:23:48.686Z,13.84
2022-10-04T04:26:27.674Z,13.57
2022-10-04T04:28:58.530Z,13.59
2022-10-04T04:31:37.298Z,13.58
2022-10-04T04:34:06.472Z,13.42
2022-10-04T04:36:40.368Z,13.46
2022-10-04T04:39:43.757Z,13.46
2022-10-04T04:42:10.397Z,12.82
2022-10-04T04:44:55.276Z,12.52
2022-10-04T04:47:40.655Z,12.67
2022-10-04T04:50:15.273Z,13.67
2022-10-04T04:52:45.209Z,13.93
2022-10-04T04:55:19.379Z,13.92
2022-10-04T04:57:47.720Z,13.39
2022-10-04T05:00:19.526Z,13.29
2022-10-04T05:02:58.514Z,12.84
2022-10-04T05:05:28.753Z,12.97
2022-10-04T05:08:12.058Z,13.06
2022-10-04T05:11:00.070Z,12.80
2022-10-04T05:13:53.664Z,12.92
2022-10-04T05:16:27.169Z,12.70
2022-10-04T05:18:56.640Z,13.22
2022-10-04T05:21:26.428Z,12.74
2022-10-04T05:23:53.470Z,12.96
2022-10-04T05:26:25.426Z,12.98
2022-10-04T05:28:51.919Z,13.10
2022-10-04T05:31:37.267Z,13.19
2022-10-04T05:34:14.038Z,12.99
2022-10-04T05:37:06.560Z,13.21
2022-10-04T05:39:43.818Z,13.53
2022-10-04T05:42:20.238Z,13.40
2022-10-04T05:44:51.921Z,13.18
2022-10-04T05:47:26.635Z,13.39
2022-10-04T05:49:55.652Z,13.57
2022-10-04T05:52:30.312Z,13.80
2022-10-04T05:55:12.920Z,13.99
2022-10-04T05:57:57.689Z,13.79
2022-10-04T06:00:37.140Z,13.85
2022-10-04T06:03:28.110Z,13.79
2022-10-04T06:06:06.225Z,14.01
2022-10-04T06:08:51.596Z,14.04
2022-10-04T06:11:33.754Z,13.96
2022-10-04T06:14:30.983Z,13.90
2022-10-04T06:17:17.136Z,14.18
2022-10-04T06:19:49.610Z,14.01
2022-10-04T06:22:17.436Z,14.23
2022-10-04T06:24:48.157Z,13.86
2022-10-04T06:27:33.573Z,14.19
2022-10-04T06:30:04.111Z,14.27
2022-10-04T06:32:34.504Z,14.20
2022-10-04T06:35:35.068Z,14.36
2022-10-04T06:38:16.742Z,14.59
2022-10-04T06:41:02.875Z,14.82
2022-10-04T06:44:04.521Z,15.15
2022-10-04T06:47:01.916Z,15.29
2022-10-04T06:49:35.443Z,15.47
2022-10-04T06:52:14.442Z,15.67
2022-10-04T06:54:56.905Z,15.75
2022-10-04T06:57:48.008Z,15.89
2022-10-04T07:00:17.567Z,16.07
2022-10-04T07:02:49.551Z,16.17
2022-10-04T07:05:30.684Z,16.16
2022-10-04T07:08:06.854Z,16.46
2022-10-04T07:10:38.950Z,16.30
2022-10-04T07:13:05.922Z,16.85
2022-10-04T07:15:42.319Z,16.87
2022-10-04T07:18:14.936Z,17.11
2022-10-04T07:20:41.525Z,17.09
2022-10-04T07:23:30.442Z,17.50
2022-10-04T07:26:07.021Z,17.31
2022-10-04T07:28:58.573Z,16.85
2022-10-04T07:31:30.339Z,17.33
2022-10-04T07:34:01.040Z,17.10
2022-10-04T07:36:49.026Z,17.61
2022-10-04T07:39:23.470Z,18.00
2022-10-04T07:41:55.929Z,18.27
2022-10-04T07:44:35.662Z,18.53
2022-10-04T07:47:22.500Z,18.42
2022-10-04T07:49:50.567Z,18.61
2022-10-04T07:52:38.883Z,19.53
2022-10-04T07:55:14.624Z,19.16
2022-10-04T07:57:58.074Z,19.51
2022-10-04T08:00:44.786Z,19.95
2022-10-04T08:03:41.872Z,19.16
2022-10-04T08:06:29.229Z,18.48
2022-10-04T08:09:14.629Z,18.48
2022-10-04T08:12:07.363Z,17.53
2022-10-04T08:14:49.907Z,18.22
2022-10-04T08:17:33.394Z,18.00
2022-10-04T08:20:32.273Z,18.78
2022-10-04T08:23:28.402Z,18.80
2022-10-04T08:26:39.219Z,19.22
2022-10-04T08:29:36.609Z,19.37
2022-10-04T08:32:05.526Z,19.04
2022-10-04T08:35:06.933Z,20.10
2022-10-04T08:38:05.507Z,20.07
2022-10-04T08:40:43.266Z,19.81
2022-10-04T08:43:29.108Z,18.97
2022-10-04T08:46:03.997Z,18.60
2022-10-04T08:48:36.535Z,19.45
2022-10-04T08:51:21.261Z,20.30
2022-10-04T08:54:06.525Z,19.92
2022-10-04T08:57:00.557Z,20.05
2022-10-04T09:00:01.380Z,20.13
2022-10-04T09:03:05.639Z,20.27
2022-10-04T09:05:53.545Z,20.90
2022-10-04T09:08:44.929Z,20.50
2022-10-04T09:11:23.634Z,21.03
2022-10-04T09:14:05.337Z,20.87
2022-10-04T09:17:03.894Z,21.69
2022-10-04T09:20:33.371Z,21.77
2022-10-04T09:23:01.782Z,21.88
2022-10-04T09:25:51.639Z,21.38
2022-10-04T09:28:30.539Z,22.14
2022-10-04T09:31:18.179Z,23.59
2022-10-04T09:33:56.925Z,22.45
2022-10-04T09:36:42.727Z,26.35
2022-10-04T09:39:34.254Z,28.54
2022-10-04T09:42:22.134Z,33.39
2022-10-04T09:45:23.234Z,35.64
2022-10-04T09:48:05.945Z,36.31
2022-10-04T09:50:44.806Z,37.56
2022-10-04T09:53:20.379Z,39.78
2022-10-04T09:55:58.249Z,40.55
2022-10-04T09:58:46.209Z,38.76
2022-10-04T10:01:18.611Z,39.98
2022-10-04T10:04:15.933Z,37.03
2022-10-04T10:06:49.281Z,40.20
2022-10-04T10:09:21.956Z,35.61
2022-10-04T10:12:45.536Z,35.98
2022-10-04T10:15:22.598Z,33.46
2022-10-04T10:17:56.198Z,36.47
2022-10-04T10:20:45.447Z,34.96
2022-10-04T10:23:21.920Z,36.87
2022-10-04T10:26:11.771Z,37.91
2022-10-04T10:28:41.213Z,39.02
2022-10-04T10:31:22.006Z,36.92
2022-10-04T10:34:25.299Z,39.25
2022-10-04T10:37:10.055Z,42.90
2022-10-04T10:40:07.391Z,43.55
2022-10-04T10:43:04.473Z,40.42
2022-10-04T10:45:40.564Z,39.95
2022-10-04T10:48:20.890Z,39.59
2022-10-04T10:51:34.430Z,39.35
2022-10-04T10:54:32.090Z,40.83
2022-10-04T10:57:36.281Z,39.28
2022-10-04T11:00:21.531Z,41.57
2022-10-04T11:03:24.558Z,46.57
2022-10-04T11:06:17.276Z,44.60
2022-10-04T11:08:55.412Z,44.08
2022-10-04T11:11:41.119Z,42.28
2022-10-04T11:14:22.827Z,39.41
2022-10-04T11:16:54.401Z,42.95
2022-10-04T11:19:44.392Z,44.85
2022-10-04T11:22:45.263Z,45.02
2022-10-04T11:25:11.667Z,43.07
2022-10-04T11:27:48.767Z,46.27
2022-10-04T11:30:24.636Z,47.18
2022-10-04T11:33:06.459Z,45.80
2022-10-04T11:35:50.937Z,45.86
2022-10-04T11:38:48.335Z,43.19
2022-10-04T11:41:50.178Z,41.26
2022-10-04T11:44:47.793Z,43.20
2022-10-04T11:47:51.718Z,44.71
2022-10-04T11:50:41.525Z,42.38
2022-10-04T11:53:27.271Z,44.38
2022-10-04T11:56:04.240Z,46.16
2022-10-04T11:58:52.916Z,45.74
2022-10-04T12:01:59.986Z,42.28
2022-10-04T12:04:45.116Z,39.06
2022-10-04T12:07:23.840Z,40.07
2022-10-04T12:10:00.662Z,34.49
2022-10-04T12:12:43.906Z,29.41
2022-10-04T12:15:38.966Z,28.47
2022-10-04T12:18:24.805Z,26.52
2022-10-04T12:21:18.810Z,26.50
2022-10-04T12:23:48.420Z,25.07
2022-10-04T12:26:32.275Z,24.98
2022-10-04T12:29:17.812Z,24.18
2022-10-04T12:31:48.975Z,24.36
2022-10-04T12:34:27.806Z,24.59
2022-10-04T12:37:00.037Z,24.58
2022-10-04T12:39:32.610Z,24.31
2022-10-04T12:42:02.462Z,24.20
2022-10-04T12:44:44.508Z,24.66
2022-10-04T12:47:38.147Z,24.39
2022-10-04T12:50:13.831Z,23.59
2022-10-04T12:53:18.778Z,22.58
2022-10-04T12:56:21.901Z,22.86
2022-10-04T12:59:19.547Z,23.00
2022-10-04T13:01:55.352Z,23.16
2022-10-04T13:04:23.914Z,23.56
2022-10-04T13:07:19.771Z,23.09
2022-10-04T13:10:19.230Z,23.29
2022-10-04T13:12:46.476Z,23.12
2022-10-04T13:19:09.701Z,23.86
2022-10-04T13:21:36.830Z,23.26
2022-10-04T13:24:28.613Z,23.04
2022-10-04T13:27:01.590Z,23.23
2022-10-04T13:29:57.933Z,23.11
2022-10-04T13:33:15.737Z,23.53
2022-10-04T13:35:54.584Z,23.52
2022-10-04T13:39:07.353Z,23.69
2022-10-04T13:41:49.498Z,23.95
2022-10-04T13:44:48.478Z,24.19
2022-10-04T13:47:36.453Z,23.79
2022-10-04T13:50:15.272Z,24.51
2022-10-04T13:53:15.651Z,24.07
2022-10-04T13:56:16.225Z,23.99
2022-10-04T13:58:57.331Z,24.06
2022-10-04T14:02:19.515Z,24.34
2022-10-04T14:05:10.748Z,24.07
2022-10-04T14:08:08.858Z,24.07
2022-10-04T14:11:13.549Z,24.09
2022-10-04T14:13:45.848Z,24.69
2022-10-04T14:16:15.341Z,25.17
2022-10-04T14:19:03.856Z,25.57
2022-10-04T14:21:37.199Z,25.16
2022-10-04T14:24:23.353Z,24.55
2022-10-04T14:27:15.453Z,24.07
2022-10-04T14:29:54.508Z,24.24
2022-10-04T14:32:46.043Z,23.72
2022-10-04T14:35:18.542Z,24.75
2022-10-04T14:37:53.920Z,25.06
2022-10-04T14:40:33.559Z,24.94
2022-10-04T14:43:18.319Z,24.92
2022-10-04T14:46:08.071Z,23.36
2022-10-04T14:49:02.716Z,24.01
2022-10-04T14:51:38.258Z,24.89
2022-10-04T14:54:29.092Z,24.04
2022-10-04T14:57:04.737Z,24.78
2022-10-04T14:59:37.274Z,24.63
2022-10-04T15:02:05.531Z,25.40
2022-10-04T15:05:16.730Z,25.39
2022-10-04T15:07:52.421Z,25.20
2022-10-04T15:10:21.785Z,24.88
2022-10-04T15:13:12.284Z,23.49
2022-10-04T15:16:14.519Z,23.17
2022-10-04T15:19:04.556Z,23.45
2022-10-04T15:21:41.049Z,22.84
2022-10-04T15:24:25.572Z,23.49
2022-10-04T15:27:14.012Z,23.56
2022-10-04T15:29:59.314Z,23.74
2022-10-04T15:32:45.949Z,23.75
2022-10-04T15:35:31.294Z,23.15
2022-10-04T15:38:24.917Z,23.36
2022-10-04T15:41:25.537Z,23.99
2022-10-04T15:44:05.826Z,24.20
2022-10-04T15:46:44.946Z,24.59
2022-10-04T15:49:36.860Z,24.85
2022-10-04T15:52:14.962Z,24.99
2022-10-04T15:55:00.380Z,25.01
2022-10-04T15:57:45.497Z,24.85
2022-10-04T16:00:15.625Z,24.55
2022-10-04T16:03:04.176Z,24.18
2022-10-04T16:05:39.319Z,24.20
2022-10-04T16:08:09.770Z,23.96
2022-10-04T16:11:10.867Z,23.98
2022-10-04T16:13:43.425Z,23.44
2022-10-04T16:16:15.995Z,23.39
2022-10-04T16:18:45.426Z,23.49
2022-10-04T16:21:44.689Z,23.32
2022-10-04T16:24:20.569Z,23.16
2022-10-04T16:26:47.668Z,23.08
2022-10-04T16:29:33.648Z,22.67
2022-10-04T16:32:17.034Z,22.03
2022-10-04T16:34:45.235Z,22.10
2022-10-04T16:37:24.030Z,21.93
2022-10-04T16:40:09.141Z,21.85
2022-10-04T16:42:44.687Z,21.96
2022-10-04T16:45:11.809Z,21.80
2022-10-04T16:47:47.422Z,21.02
2022-10-04T16:50:47.663Z,20.97
2022-10-04T16:53:32.590Z,21.20
2022-10-04T16:56:11.455Z,20.76
2022-10-04T16:58:59.763Z,20.74
2022-10-04T17:01:58.516Z,20.39
2022-10-04T17:04:56.122Z,20.38
2022-10-04T17:07:29.205Z,20.35
2022-10-04T17:10:03.378Z,20.21
2022-10-04T17:12:45.415Z,20.30
2022-10-04T17:15:14.935Z,20.59
2022-10-04T17:17:46.936Z,20.52
2022-10-04T17:20:32.119Z,20.52
2022-10-04T17:23:36.701Z,20.29
2022-10-04T17:26:23.693Z,20.00
2022-10-04T17:29:07.089Z,19.81
2022-10-04T17:31:42.761Z,19.96
2022-10-04T17:34:33.377Z,19.81
2022-10-04T17:37:40.022Z,19.53
2022-10-04T17:40:12.162Z,19.47
2022-10-04T17:43:05.194Z,18.95
2022-10-04T17:45:53.120Z,19.05
2022-10-04T17:49:11.519Z,19.03
2022-10-04T17:52:05.406Z,19.08
2022-10-04T17:54:56.713Z,19.25
2022-10-04T17:57:30.792Z,18.71
2022-10-04T18:00:14.419Z,19.03
2022-10-04T18:02:49.507Z,18.88
2022-10-04T18:05:26.638Z,18.74
2022-10-04T18:07:57.858Z,18.81
2022-10-04T18:10:37.692Z,18.86
2022-10-04T18:13:20.336Z,18.65
2022-10-04T18:15:53.257Z,18.66
2022-10-04T18:18:21.804Z,18.65
2022-10-04T18:20:54.390Z,18.78
2022-10-04T18:23:28.984Z,18.83
2022-10-04T18:26:02.807Z,18.71
2022-10-04T18:28:29.440Z,18.86
2022-10-04T18:31:00.227Z,18.93
2022-10-04T18:33:49.855Z,18.66
2022-10-04T18:36:48.001Z,18.39
2022-10-04T18:39:14.624Z,18.50
2022-10-04T18:42:01.154Z,18.21
2022-10-04T18:44:45.092Z,18.24
2022-10-04T18:47:28.960Z,18.38
2022-10-04T18:50:02.737Z,18.45
2022-10-04T18:52:41.775Z,18.30
2022-10-04T18:55:08.259Z,17.50
2022-10-04T18:57:59.588Z,17.73
2022-10-04T19:00:51.763Z,17.90
2022-10-04T19:03:39.613Z,17.65
2022-10-04T19:06:30.781Z,17.29
2022-10-04T19:09:04.266Z,17.39
2022-10-04T19:11:36.902Z,17.49
2022-10-04T19:14:41.010Z,17.62
2022-10-04T19:17:18.255Z,17.76
2022-10-04T19:19:44.688Z,17.84
2022-10-04T19:22:26.636Z,17.84
2022-10-04T19:25:14.923Z,17.80
2022-10-04T19:28:13.996Z,17.62
2022-10-04T19:30:49.472Z,17.88
2022-10-04T19:33:38.031Z,17.87
2022-10-04T19:36:23.442Z,18.04
2022-10-04T19:38:52.052Z,18.15
2022-10-04T19:41:48.834Z,18.15
2022-10-04T19:44:18.295Z,18.27
2022-10-04T19:46:56.032Z,18.32
2022-10-04T19:49:32.703Z,18.35
2022-10-04T19:52:21.965Z,18.07
2022-10-04T19:54:57.873Z,18.29
2022-10-04T19:57:37.569Z,18.00
2022-10-04T20:00:12.620Z,18.14
2022-10-04T20:02:48.276Z,18.03
2022-10-04T20:05:20.130Z,18.08
2022-10-04T20:07:56.143Z,18.23
2022-10-04T20:10:29.720Z,17.75
2022-10-04T20:13:21.085Z,17.92
2022-10-04T20:15:52.959Z,17.95
2022-10-04T20:18:34.725Z,17.96
2022-10-04T20:21:01.539Z,17.70
2022-10-04T20:23:37.367Z,17.78
2022-10-04T20:26:06.385Z,17.65
2022-10-04T20:28:32.946Z,17.36
2022-10-04T20:31:03.397Z,17.16
2022-10-04T20:33:32.988Z,17.09
2022-10-04T20:36:05.597Z,17.17
2022-10-04T20:38:55.689Z,16.29
2022-10-04T20:41:28.343Z,16.25
2022-10-04T20:43:59.111Z,15.71
2022-10-04T20:46:27.691Z,16.66
2022-10-04T20:48:54.950Z,16.73
2022-10-04T20:51:24.065Z,16.56
2022-10-04T20:53:51.041Z,16.27
2022-10-04T20:56:28.822Z,16.52
2022-10-04T20:58:57.027Z,16.60
2022-10-04T21:01:38.200Z,16.73
2022-10-04T21:04:44.458Z,17.06
2022-10-04T21:07:22.182Z,17.15
2022-10-04T21:09:49.443Z,17.23
2022-10-04T21:12:34.485Z,17.30
2022-10-04T21:15:21.903Z,17.33
2022-10-04T21:18:09.579Z,16.95
2022-10-04T21:20:49.497Z,16.76
2022-10-04T21:23:33.623Z,16.54
2022-10-04T21:26:22.766Z,16.91
2022-10-04T21:28:53.975Z,16.50
2022-10-04T21:31:20.582Z,16.14
2022-10-04T21:33:47.321Z,16.13
2022-10-04T21:36:13.938Z,16.09
2022-10-04T21:38:40.966Z,16.19
2022-10-04T21:41:07.691Z,16.54
2022-10-04T21:43:34.687Z,16.94
2022-10-04T21:46:01.311Z,16.83
2022-10-04T21:48:28.024Z,17.38
2022-10-04T21:50:55.014Z,17.02
2022-10-04T21:53:22.183Z,16.42
2022-10-04T21:55:48.966Z,16.79
2022-10-04T21:58:15.537Z,16.24
2022-10-04T22:00:42.109Z,16.99
2022-10-04T22:03:08.709Z,16.42
2022-10-04T22:05:35.500Z,16.50
2022-10-04T22:08:02.023Z,16.58
2022-10-04T22:10:28.790Z,16.70
2022-10-04T22:12:56.994Z,16.22
2022-10-04T22:15:25.418Z,16.51
2022-10-04T22:17:52.074Z,16.91
2022-10-04T22:20:18.862Z,16.31
2022-10-04T22:22:45.462Z,16.86
2022-10-04T22:25:20.114Z,16.92
2022-10-04T22:27:47.074Z,16.75
2022-10-04T22:30:25.549Z,16.51
2022-10-04T22:32:55.912Z,16.79
2022-10-04T22:35:22.409Z,16.85
2022-10-04T22:37:49.905Z,16.60
2022-10-04T22:40:22.729Z,16.69
2022-10-04T22:42:51.566Z,16.86
2022-10-04T22:45:21.705Z,16.56
2022-10-04T22:47:49.231Z,16.15
2022-10-04T22:50:29.387Z,16.70
2022-10-04T22:52:56.050Z,16.07
2022-10-04T22:55:22.599Z,16.34
2022-10-04T22:57:49.721Z,16.80
2022-10-04T23:00:16.463Z,16.24
2022-10-04T23:02:43.021Z,16.04
2022-10-04T23:05:17.280Z,16.35
2022-10-04T23:07:44.614Z,16.27
2022-10-04T23:10:12.497Z,16.72
2022-10-04T23:12:40.654Z,16.80
2022-10-04T23:15:08.222Z,16.95
2022-10-04T23:17:37.216Z,16.86
2022-10-04T23:20:13.549Z,16.35
2022-10-04T23:22:52.029Z,16.61
2022-10-04T23:25:26.649Z,16.49
2022-10-04T23:27:55.241Z,16.71
2022-10-04T23:30:22.608Z,16.48
2022-10-04T23:32:51.786Z,17.12
2022-10-04T23:35:24.493Z,16.93
2022-10-04T23:37:51.883Z,16.49
2022-10-04T23:40:21.101Z,17.09
2022-10-04T23:42:53.371Z,16.92
2022-10-04T23:45:23.124Z,16.87
2022-10-04T23:47:52.125Z,17.34
2022-10-04T23:50:30.640Z,17.04
2022-10-04T23:53:02.448Z,16.62
2022-10-04T23:55:32.081Z,17.45
2022-10-04T23:57:59.645Z,17.03
